Time;durP1;ratioP1;P1;durP2;ratioP2;P2;SDS_P1;SDS_P2;PMS_P1;PMS_P2;Temp;Humidity;BMP_temperature;BMP_pressure;BME280_temperature;BME280_humidity;BME280_pressure;Samples;Min_cycle;Max_cycle;Signal;HPM_P1;HPM_P2
2022/11/02 00:01:45;;;;;;;7.87;1.53;;;12.50;1.00;;;;;;5073182;28;20225;-62
2022/11/02 00:04:12;;;;;;;7.37;1.80;;;12.50;99.90;;;;;;5072894;28;20218;-62
2022/11/02 00:06:40;;;;;;;3.87;1.33;;;12.60;99.90;;;;;;5072733;28;20673;-62
2022/11/02 00:09:07;;;;;;;6.83;1.53;;;12.60;99.90;;;;;;5073039;28;20303;-62
2022/11/02 00:11:36;;;;;;;8.80;1.80;;;12.60;99.90;;;;;;5072066;28;20798;-62
2022/11/02 00:14:02;;;;;;;6.90;1.67;;;12.60;99.90;;;;;;5072821;28;20203;-62
2022/11/02 00:16:29;;;;;;;10.40;1.93;;;12.70;99.90;;;;;;5072556;28;20265;-61
2022/11/02 00:18:59;;;;;;;6.57;1.90;;;12.70;99.90;;;;;;5072729;28;20207;-62
2022/11/02 00:21:27;;;;;;;7.70;1.73;;;12.70;20.30;;;;;;5073129;28;20232;-62
2022/11/02 00:23:57;;;;;;;4.93;1.50;;;12.80;99.80;;;;;;5072734;28;20269;-62
2022/11/02 00:26:24;;;;;;;4.73;1.57;;;12.80;1.00;;;;;;5072224;28;20209;-62
2022/11/02 00:28:52;;;;;;;12.40;2.13;;;12.80;90.00;;;;;;5072541;28;20267;-62
2022/11/02 00:31:18;;;;;;;8.07;1.57;;;12.80;5.50;;;;;;5072602;28;20710;-62
2022/11/02 00:33:45;;;;;;;6.17;1.83;;;12.70;99.90;;;;;;5072320;28;20265;-62
2022/11/02 00:36:12;;;;;;;12.00;1.63;;;12.80;70.50;;;;;;5072367;28;20247;-62
2022/11/02 00:38:39;;;;;;;8.67;1.60;;;12.80;99.90;;;;;;5072339;28;20206;-62
2022/11/02 00:41:07;;;;;;;8.40;1.83;;;12.80;99.90;;;;;;5072244;28;20227;-62
2022/11/02 00:43:33;;;;;;;8.37;1.40;;;12.80;99.90;;;;;;5072148;28;20209;-62
2022/11/02 00:46:00;;;;;;;8.30;1.73;;;12.90;99.90;;;;;;5072342;28;20266;-62
2022/11/02 00:48:27;;;;;;;11.97;1.60;;;12.80;1.00;;;;;;5072212;28;20213;-62
2022/11/02 00:50:54;;;;;;;7.50;1.63;;;12.80;1.00;;;;;;5072073;28;20229;-61
2022/11/02 00:53:20;;;;;;;7.97;1.50;;;12.70;99.90;;;;;;5072177;28;20201;-62
2022/11/02 00:55:47;;;;;;;10.07;1.93;;;12.70;1.00;;;;;;5072127;28;20213;-61
2022/11/02 00:58:15;;;;;;;6.57;1.50;;;12.70;99.90;;;;;;5071759;28;20288;-62
2022/11/02 01:00:42;;;;;;;10.13;1.80;;;12.70;1.00;;;;;;5072251;28;20207;-62
2022/11/02 01:03:08;;;;;;;12.57;1.77;;;12.60;99.90;;;;;;5072243;28;20210;-61
2022/11/02 01:05:36;;;;;;;7.63;1.87;;;12.60;80.50;;;;;;5072060;28;20280;-62
2022/11/02 01:08:03;;;;;;;10.30;2.30;;;12.60;80.50;;;;;;5071794;28;20208;-62
2022/11/02 01:10:30;;;;;;;9.90;2.13;;;12.60;99.90;;;;;;5071652;28;20217;-62
2022/11/02 01:12:57;;;;;;;12.33;1.77;;;12.70;99.90;;;;;;5071673;28;20218;-62
2022/11/02 01:15:25;;;;;;;12.07;2.53;;;12.70;25.20;;;;;;5071939;28;20213;-62
2022/11/02 01:17:51;;;;;;;6.40;1.67;;;12.70;1.00;;;;;;5071867;28;20208;-62
2022/11/02 01:20:18;;;;;;;9.30;2.27;;;12.70;77.70;;;;;;5071842;28;20197;-62
2022/11/02 01:22:45;;;;;;;8.73;1.90;;;12.70;1.00;;;;;;5072266;28;20281;-62
2022/11/02 01:25:12;;;;;;;6.93;1.63;;;12.60;1.00;;;;;;5071590;28;20266;-61
2022/11/02 01:27:38;;;;;;;8.00;2.20;;;12.50;35.80;;;;;;5073187;28;20231;-62
2022/11/02 01:30:06;;;;;;;8.80;1.47;;;12.50;99.90;;;;;;5071752;28;20221;-62
2022/11/02 01:32:34;;;;;;;10.97;2.30;;;12.60;99.90;;;;;;5071612;28;20221;-62
2022/11/02 01:35:01;;;;;;;7.37;1.67;;;12.60;99.90;;;;;;5071742;28;20262;-61
2022/11/02 01:37:28;;;;;;;7.80;1.67;;;12.60;99.90;;;;;;5071473;28;20210;-62
2022/11/02 01:39:55;;;;;;;11.00;1.73;;;12.60;37.20;;;;;;5071532;28;20205;-62
2022/11/02 01:42:24;;;;;;;5.53;1.40;;;12.50;99.90;;;;;;5071842;28;20572;-62
2022/11/02 01:44:50;;;;;;;10.37;1.97;;;12.50;99.90;;;;;;5071656;28;20208;-62
2022/11/02 01:47:23;;;;;;;8.73;1.90;;;12.40;1.00;;;;;;5071601;28;20205;-61
2022/11/02 01:49:55;;;;;;;6.37;1.50;;;12.40;50.20;;;;;;5071557;28;20638;-62
2022/11/02 01:52:26;;;;;;;9.47;1.40;;;12.40;99.90;;;;;;5071642;28;20228;-61
2022/11/02 01:54:56;;;;;;;9.73;1.53;;;12.30;99.90;;;;;;5071750;28;20208;-61
2022/11/02 01:57:23;;;;;;;7.97;1.67;;;12.40;99.90;;;;;;5071557;28;20683;-61
2022/11/02 01:59:53;;;;;;;8.33;1.73;;;12.30;1.00;;;;;;5071599;28;20269;-61
2022/11/02 02:02:22;;;;;;;5.33;1.60;;;12.30;1.80;;;;;;5071601;28;20227;-61
2022/11/02 02:04:54;;;;;;;6.13;1.40;;;12.40;3.00;;;;;;5071450;28;20209;-61
2022/11/02 02:07:24;;;;;;;8.17;2.07;;;12.50;1.00;;;;;;5071757;28;20211;-61
2022/11/02 02:09:51;;;;;;;10.77;1.83;;;12.50;1.00;;;;;;5071693;28;20231;-61
2022/11/02 02:12:18;;;;;;;8.27;1.73;;;12.60;99.90;;;;;;5071350;28;20229;-61
2022/11/02 02:14:45;;;;;;;6.60;1.70;;;12.60;99.90;;;;;;5071470;28;20259;-61
2022/11/02 02:17:32;;;;;;;12.47;2.07;;;12.70;99.90;;;;;;5071085;28;20213;-61
2022/11/02 02:20:05;;;;;;;5.87;1.70;;;12.70;99.90;;;;;;5071340;28;20203;-61
2022/11/02 02:22:48;;;;;;;7.40;1.90;;;12.70;99.90;;;;;;5071015;28;20224;-61
2022/11/02 02:25:35;;;;;;;8.30;1.73;;;12.70;99.90;;;;;;5071342;28;20227;-62
2022/11/02 02:28:18;;;;;;;11.63;1.77;;;12.60;99.90;;;;;;5070962;28;20215;-62
2022/11/02 02:30:51;;;;;;;12.73;2.07;;;12.60;99.90;;;;;;5071164;28;20235;-62
2022/11/02 02:33:26;;;;;;;11.90;2.10;;;12.60;99.90;;;;;;5071386;28;20207;-60
2022/11/02 02:36:00;;;;;;;7.57;1.90;;;12.50;99.90;;;;;;5074042;28;20234;-62
2022/11/02 02:38:31;;;;;;;10.30;1.73;;;12.50;99.90;;;;;;5074382;28;20209;-62
2022/11/02 02:41:03;;;;;;;9.67;2.17;;;12.40;1.00;;;;;;5074702;28;20579;-62
2022/11/02 02:43:36;;;;;;;8.80;1.87;;;12.40;1.00;;;;;;5074817;28;20585;-62
2022/11/02 02:46:08;;;;;;;7.50;1.97;;;12.30;1.00;;;;;;5074441;28;20204;-61
2022/11/02 02:48:38;;;;;;;12.03;2.17;;;12.30;91.40;;;;;;5074693;28;20217;-62
2022/11/02 02:51:09;;;;;;;10.03;2.30;;;12.20;99.90;;;;;;5074499;28;20236;-62
2022/11/02 02:53:40;;;;;;;10.50;1.87;;;12.20;99.90;;;;;;5074744;28;20625;-62
2022/11/02 02:56:09;;;;;;;8.00;1.70;;;12.10;1.00;;;;;;5074247;28;20252;-61
2022/11/02 02:58:42;;;;;;;7.47;1.53;;;12.10;99.90;;;;;;5074459;28;20209;-62
2022/11/02 03:01:12;;;;;;;4.43;1.60;;;12.10;99.90;;;;;;5073748;28;20231;-62
2022/11/02 03:03:41;;;;;;;6.57;2.27;;;12.10;99.90;;;;;;5074457;28;20238;-62
2022/11/02 03:06:16;;;;;;;8.47;1.80;;;12.10;99.90;;;;;;5074085;28;20238;-62
2022/11/02 03:08:48;;;;;;;9.33;1.70;;;12.20;99.90;;;;;;5074366;28;20209;-62
2022/11/02 03:11:17;;;;;;;7.63;1.40;;;12.20;99.90;;;;;;5074139;28;20229;-62
2022/11/02 03:13:59;;;;;;;10.53;1.93;;;12.30;82.90;;;;;;5074008;28;20231;-62
2022/11/02 03:16:44;;;;;;;5.73;1.57;;;12.30;86.20;;;;;;5073956;28;20208;-62
2022/11/02 03:19:22;;;;;;;7.70;1.80;;;12.30;29.50;;;;;;5074061;28;20216;-62
2022/11/02 03:21:55;;;;;;;11.30;2.10;;;12.40;30.50;;;;;;5073689;28;20723;-62
2022/11/02 03:24:28;;;;;;;4.23;1.60;;;12.40;56.70;;;;;;5074179;28;20290;-62
2022/11/02 03:27:09;;;;;;;6.67;1.90;;;12.40;21.90;;;;;;5073652;28;20637;-62
2022/11/02 03:29:43;;;;;;;10.00;2.30;;;12.40;12.70;;;;;;5073828;28;20260;-62
2022/11/02 03:32:13;;;;;;;6.10;1.83;;;12.40;13.20;;;;;;5073591;28;20233;-62
2022/11/02 03:34:43;;;;;;;6.80;2.10;;;12.40;1.00;;;;;;5073962;28;20209;-62
2022/11/02 03:37:14;;;;;;;7.83;2.13;;;12.30;3.20;;;;;;5073337;28;20210;-62
2022/11/02 03:39:44;;;;;;;7.30;2.00;;;12.30;1.00;;;;;;5073462;28;20705;-62
2022/11/02 03:42:16;;;;;;;4.80;1.50;;;12.40;1.00;;;;;;5073709;28;20638;-62
2022/11/02 03:44:48;;;;;;;8.27;1.90;;;12.40;1.00;;;;;;5073472;28;20208;-62
2022/11/02 03:47:19;;;;;;;7.43;1.73;;;12.40;1.00;;;;;;5073480;28;20204;-62
2022/11/02 03:49:47;;;;;;;5.67;1.80;;;12.40;1.00;;;;;;5073858;28;20235;-62
2022/11/02 03:52:18;;;;;;;11.87;1.83;;;12.30;1.00;;;;;;5073192;28;20228;-60
2022/11/02 03:54:50;;;;;;;6.50;1.50;;;12.30;1.00;;;;;;5073359;28;20204;-62
2022/11/02 03:57:21;;;;;;;5.93;1.70;;;12.30;1.00;;;;;;5072916;28;20213;-59
2022/11/02 03:59:49;;;;;;;9.03;2.70;;;12.20;1.00;;;;;;5073179;28;20689;-61
2022/11/02 04:02:18;;;;;;;8.93;1.70;;;12.20;1.00;;;;;;5073035;28;20224;-61
2022/11/02 04:04:49;;;;;;;8.90;2.10;;;12.20;20.60;;;;;;5073149;28;20263;-61
2022/11/02 04:07:20;;;;;;;8.93;1.80;;;12.20;58.50;;;;;;5072635;28;20206;-61
2022/11/02 04:09:47;;;;;;;5.23;1.63;;;12.10;57.00;;;;;;5072925;28;20214;-62
2022/11/02 04:15:00;;;;;;;7.63;1.87;;;12.10;99.90;;;;;;5072915;28;20203;-62
2022/11/02 04:20:11;;;;;;;9.57;2.17;;;12.10;99.90;;;;;;5072684;28;20206;-62
2022/11/02 04:25:21;;;;;;;5.17;1.57;;;11.90;99.90;;;;;;5072767;28;20203;-62
2022/11/02 04:27:50;;;;;;;5.93;1.57;;;12.00;99.90;;;;;;5072189;28;20219;-62
2022/11/02 04:30:20;;;;;;;10.20;2.13;;;11.90;99.90;;;;;;5072484;28;20231;-62
2022/11/02 04:35:34;;;;;;;11.50;2.53;;;11.90;99.90;;;;;;5072546;28;20220;-62
2022/11/02 04:40:46;;;;;;;11.20;2.20;;;11.90;99.90;;;;;;5072747;28;20226;-62
2022/11/02 04:43:13;;;;;;;8.13;1.70;;;11.90;99.90;;;;;;5072178;28;20251;-62
2022/11/02 04:45:41;;;;;;;8.13;1.80;;;11.90;99.90;;;;;;5072516;28;20210;-62
2022/11/02 04:48:09;;;;;;;8.57;1.53;;;11.90;99.90;;;;;;5071958;28;20668;-61
2022/11/02 04:50:36;;;;;;;8.10;1.57;;;11.90;99.90;;;;;;5072136;28;20201;-62
2022/11/02 04:53:05;;;;;;;6.27;1.67;;;12.00;99.90;;;;;;5072106;28;20672;-62
2022/11/02 04:55:32;;;;;;;9.27;1.97;;;12.00;96.80;;;;;;5072225;28;20296;-61
2022/11/02 04:57:59;;;;;;;3.97;1.57;;;12.00;65.90;;;;;;5071422;28;20213;-62
2022/11/02 05:00:26;;;;;;;3.60;1.50;;;12.00;55.80;;;;;;5072287;28;20256;-60
2022/11/02 05:02:54;;;;;;;6.00;1.50;;;12.00;58.10;;;;;;5072143;28;20262;-62
2022/11/02 05:05:20;;;;;;;7.90;1.40;;;12.00;48.10;;;;;;5072098;28;20262;-62
2022/11/02 05:07:47;;;;;;;8.73;1.80;;;12.00;77.80;;;;;;5071736;28;20585;-62
2022/11/02 05:10:14;;;;;;;5.40;1.77;;;12.00;36.20;;;;;;5072024;28;20617;-62
2022/11/02 05:12:40;;;;;;;7.07;1.67;;;12.00;50.30;;;;;;5071955;28;20232;-62
2022/11/02 05:15:08;;;;;;;10.30;1.77;;;12.00;1.00;;;;;;5072149;28;20279;-61
2022/11/02 05:17:35;;;;;;;5.50;1.73;;;12.00;1.00;;;;;;5071734;28;20254;-62
2022/11/02 05:20:03;;;;;;;6.53;1.77;;;12.00;1.00;;;;;;5071930;28;20209;-61
2022/11/02 05:22:30;;;;;;;8.30;1.57;;;12.10;1.00;;;;;;5071740;28;20295;-66
2022/11/02 05:24:57;;;;;;;8.70;1.70;;;12.10;1.00;;;;;;5071741;28;20270;-62
2022/11/02 05:27:24;;;;;;;5.60;1.47;;;12.10;1.00;;;;;;5071385;28;20741;-62
2022/11/02 05:29:51;;;;;;;9.97;1.60;;;12.10;1.00;;;;;;5071881;28;20622;-62
2022/11/02 05:32:17;;;;;;;8.13;1.90;;;12.10;1.00;;;;;;5071430;28;20225;-62
2022/11/02 05:34:44;;;;;;;4.87;1.53;;;12.20;1.00;;;;;;5071776;28;20216;-62
2022/11/02 05:37:12;;;;;;;7.83;1.60;;;12.20;1.00;;;;;;5071369;28;20204;-62
2022/11/02 05:39:39;;;;;;;8.00;1.73;;;12.20;1.00;;;;;;5071679;28;20213;-60
2022/11/02 05:42:05;;;;;;;6.67;1.60;;;12.20;1.00;;;;;;5069190;28;20270;-61
2022/11/02 05:44:32;;;;;;;8.40;1.70;;;12.20;1.00;;;;;;5071133;28;20255;-62
2022/11/02 05:46:59;;;;;;;10.47;3.67;;;12.30;1.00;;;;;;5071099;28;20203;-61
2022/11/02 05:49:25;;;;;;;9.13;1.70;;;12.30;1.00;;;;;;5071213;28;20262;-61
2022/11/02 05:51:52;;;;;;;7.10;1.43;;;12.20;1.00;;;;;;5071266;28;20230;-62
2022/11/02 05:54:20;;;;;;;5.50;1.50;;;12.20;1.00;;;;;;5071111;28;20216;-61
2022/11/02 05:56:47;;;;;;;8.10;1.90;;;12.10;1.00;;;;;;5071179;28;20847;-61
2022/11/02 05:59:14;;;;;;;7.83;1.60;;;12.00;1.00;;;;;;5071130;28;20588;-62
2022/11/02 06:01:40;;;;;;;12.40;2.10;;;12.00;1.00;;;;;;5071443;28;20228;-61
2022/11/02 06:04:07;;;;;;;8.03;1.83;;;11.90;1.00;;;;;;5070761;28;20213;-61
2022/11/02 06:06:34;;;;;;;11.87;1.87;;;11.90;1.00;;;;;;5071080;28;20209;-60
2022/11/02 06:09:00;;;;;;;10.77;1.77;;;11.90;1.00;;;;;;5071699;28;20209;-61
2022/11/02 06:11:28;;;;;;;7.73;1.83;;;11.90;1.00;;;;;;5075243;28;20225;-61
2022/11/02 06:13:55;;;;;;;11.40;2.00;;;11.90;1.00;;;;;;5074740;28;20220;-60
2022/11/02 06:16:22;;;;;;;9.00;1.50;;;11.90;1.00;;;;;;5074581;28;20205;-61
2022/11/02 06:18:48;;;;;;;9.50;1.10;;;11.90;1.00;;;;;;5075017;28;20205;-61
2022/11/02 06:21:15;;;;;;;8.30;1.73;;;11.90;1.00;;;;;;5074017;28;20220;-57
2022/11/02 06:23:42;;;;;;;6.00;1.57;;;11.90;1.00;;;;;;5075045;28;20291;-63
2022/11/02 06:26:11;;;;;;;6.27;2.00;;;11.90;1.00;;;;;;5074124;28;20244;-63
2022/11/02 06:28:39;;;;;;;7.43;1.70;;;11.90;1.00;;;;;;5074613;28;20769;-61
2022/11/02 06:31:06;;;;;;;10.10;1.50;;;11.80;1.00;;;;;;5074218;28;20350;-60
2022/11/02 06:33:33;;;;;;;6.83;1.40;;;11.70;1.00;;;;;;5074461;28;20266;-64
2022/11/02 06:35:59;;;;;;;9.40;1.80;;;11.70;27.60;;;;;;5073847;28;20213;-62
2022/11/02 06:38:26;;;;;;;12.20;1.70;;;11.70;28.00;;;;;;5065524;28;20205;-62
2022/11/02 06:40:54;;;;;;;7.73;1.70;;;11.70;14.10;;;;;;5068764;28;20229;-62
2022/11/02 06:43:21;;;;;;;8.77;1.47;;;11.70;1.00;;;;;;5073634;28;20205;-61
2022/11/02 06:45:49;;;;;;;10.53;1.70;;;11.70;1.00;;;;;;5073931;28;20573;-62
2022/11/02 06:48:15;;;;;;;6.87;1.63;;;11.80;36.70;;;;;;5073112;28;20267;-61
2022/11/02 06:50:42;;;;;;;14.67;1.80;;;11.80;1.00;;;;;;5073568;28;20241;-57
2022/11/02 06:53:09;;;;;;;6.60;1.47;;;11.80;1.00;;;;;;5073538;28;20228;-57
2022/11/02 06:55:35;;;;;;;9.23;2.17;;;11.90;1.00;;;;;;5073967;28;20275;-57
2022/11/02 06:58:02;;;;;;;10.37;2.00;;;11.90;1.00;;;;;;5073076;28;20210;-63
2022/11/02 07:00:29;;;;;;;10.57;2.00;;;12.00;1.00;;;;;;5072187;28;20235;-64
2022/11/02 07:03:00;;;;;;;11.13;2.03;;;12.00;1.00;;;;;;5073773;28;20202;-64
2022/11/02 07:05:36;;;;;;;13.10;2.07;;;12.00;1.00;;;;;;5073574;28;20209;-63
2022/11/02 07:08:04;;;;;;;6.67;1.53;;;12.00;1.00;;;;;;5068106;28;20691;-62
2022/11/02 07:10:30;;;;;;;5.83;1.30;;;12.00;1.00;;;;;;5072624;28;20699;-63
2022/11/02 07:12:58;;;;;;;6.07;1.43;;;12.00;1.00;;;;;;5073300;28;20730;-62
2022/11/02 07:15:26;;;;;;;7.70;1.70;;;12.10;1.00;;;;;;5072832;28;20204;-61
2022/11/02 07:17:53;;;;;;;9.23;1.70;;;12.10;1.00;;;;;;5073197;28;20208;-63
2022/11/02 07:20:21;;;;;;;10.30;2.17;;;12.00;1.00;;;;;;5072334;28;20205;-62
2022/11/02 07:22:55;;;;;;;7.40;1.60;;;12.00;1.00;;;;;;5073359;28;20308;-63
2022/11/02 07:25:22;;;;;;;13.83;2.17;;;12.00;99.90;;;;;;5072646;28;20277;-64
2022/11/02 07:27:49;;;;;;;6.70;1.57;;;12.10;99.90;;;;;;5072780;28;20589;-62
2022/11/02 07:30:16;;;;;;;11.60;1.63;;;12.10;99.90;;;;;;5073133;28;20208;-64
2022/11/02 07:32:44;;;;;;;7.27;1.40;;;12.20;99.90;;;;;;5072689;28;20645;-64
2022/11/02 07:35:12;;;;;;;8.70;2.17;;;12.20;99.90;;;;;;5073276;28;20215;-66
2022/11/02 07:37:41;;;;;;;7.80;1.60;;;12.20;99.90;;;;;;5072497;28;20262;-64
2022/11/02 07:40:09;;;;;;;6.97;1.80;;;12.30;1.00;;;;;;5072389;28;20208;-63
2022/11/02 07:42:36;;;;;;;9.07;2.17;;;12.30;99.90;;;;;;5072281;28;20230;-62
2022/11/02 07:45:03;;;;;;;7.73;2.17;;;12.30;99.90;;;;;;5073061;28;20201;-64
2022/11/02 07:47:30;;;;;;;6.90;1.87;;;12.30;99.90;;;;;;5072443;28;20229;-63
2022/11/02 07:49:58;;;;;;;11.53;1.93;;;12.30;99.90;;;;;;5072413;28;20216;-60
2022/11/02 07:52:25;;;;;;;7.73;1.53;;;12.30;99.90;;;;;;5072405;28;20684;-63
2022/11/02 07:54:53;;;;;;;8.07;1.90;;;12.30;69.10;;;;;;5070487;28;20237;-64
2022/11/02 07:57:19;;;;;;;6.70;1.53;;;12.30;99.90;;;;;;5058565;28;20289;-61
2022/11/02 07:59:46;;;;;;;9.20;1.90;;;12.20;99.90;;;;;;5071866;28;20203;-64
2022/11/02 08:02:13;;;;;;;11.13;1.80;;;12.20;99.90;;;;;;5072647;28;20282;-62
2022/11/02 08:04:40;;;;;;;10.37;1.70;;;12.20;99.90;;;;;;5072132;28;20213;-62
2022/11/02 08:07:06;;;;;;;13.93;2.07;;;12.20;99.90;;;;;;5072258;28;20211;-62
2022/11/02 08:09:33;;;;;;;11.17;2.87;;;12.30;99.90;;;;;;5071683;28;20208;-60
2022/11/02 08:12:01;;;;;;;9.47;1.57;;;12.20;99.90;;;;;;5072198;28;20235;-61
2022/11/02 08:14:27;;;;;;;7.67;2.13;;;12.20;99.90;;;;;;5072918;28;20209;-60
2022/11/02 08:16:54;;;;;;;9.73;1.83;;;12.20;99.90;;;;;;5071765;28;20208;-60
2022/11/02 08:19:21;;;;;;;7.10;1.50;;;12.20;99.90;;;;;;5072752;28;20625;-63
2022/11/02 08:21:47;;;;;;;9.97;1.83;;;12.40;1.00;;;;;;5072402;28;20619;-60
2022/11/02 08:24:14;;;;;;;7.97;1.63;;;12.50;99.90;;;;;;5071972;28;20205;-60
2022/11/02 08:26:41;;;;;;;11.30;1.63;;;12.60;99.90;;;;;;5071410;28;20265;-62
2022/11/02 08:29:09;;;;;;;10.07;1.40;;;12.60;1.00;;;;;;5071689;28;20256;-60
2022/11/02 08:31:35;;;;;;;7.30;1.73;;;12.60;99.90;;;;;;5071197;28;20600;-63
2022/11/02 08:34:02;;;;;;;7.60;2.00;;;12.70;99.90;;;;;;5071396;28;20295;-57
2022/11/02 08:36:29;;;;;;;12.37;1.70;;;12.70;1.00;;;;;;5071600;28;20215;-54
2022/11/02 08:38:55;;;;;;;7.97;1.47;;;12.80;99.90;;;;;;5071025;28;20212;-59
2022/11/02 08:41:22;;;;;;;6.73;1.60;;;12.80;5.60;;;;;;5071748;28;20292;-62
2022/11/02 08:43:49;;;;;;;5.90;1.10;;;12.70;99.90;;;;;;5071215;28;20258;-62
2022/11/02 08:46:17;;;;;;;10.37;1.73;;;12.70;99.90;;;;;;5071594;28;20254;-62
2022/11/02 08:48:44;;;;;;;8.53;1.40;;;12.70;1.00;;;;;;5071131;28;20212;-61
2022/11/02 08:51:10;;;;;;;8.27;1.67;;;12.70;1.00;;;;;;5071080;28;20225;-65
2022/11/02 08:53:37;;;;;;;6.87;1.70;;;12.80;99.90;;;;;;5071710;28;20231;-63
2022/11/02 08:56:04;;;;;;;6.60;1.40;;;12.80;80.30;;;;;;5070913;28;20219;-62
2022/11/02 08:58:31;;;;;;;9.03;1.40;;;12.70;1.00;;;;;;5071702;28;20215;-62
2022/11/02 09:00:57;;;;;;;4.73;1.50;;;12.70;1.00;;;;;;5070603;28;20732;-68
2022/11/02 09:03:27;;;;;;;7.37;1.70;;;12.80;1.00;;;;;;5071423;28;20248;-62
2022/11/02 09:05:58;;;;;;;9.57;2.17;;;12.70;1.00;;;;;;5068321;28;20208;-62
2022/11/02 09:08:24;;;;;;;5.17;1.63;;;12.70;1.00;;;;;;5071495;28;20239;-62
2022/11/02 09:10:52;;;;;;;10.47;1.70;;;12.70;37.60;;;;;;5071085;28;20232;-64
2022/11/02 09:13:23;;;;;;;10.70;1.80;;;12.80;99.90;;;;;;5071067;28;20227;-66
2022/11/02 09:15:51;;;;;;;9.47;2.13;;;12.80;99.90;;;;;;5071160;28;20208;-67
2022/11/02 09:18:18;;;;;;;6.10;1.40;;;12.90;86.70;;;;;;5070720;28;20216;-66
2022/11/02 09:20:47;;;;;;;6.97;1.67;;;12.80;1.00;;;;;;5071128;28;20579;-61
2022/11/02 09:23:15;;;;;;;7.27;1.60;;;12.80;71.20;;;;;;5070809;28;20201;-64
2022/11/02 09:25:41;;;;;;;10.73;1.70;;;12.90;69.70;;;;;;5071058;28;20290;-63
2022/11/02 09:28:08;;;;;;;10.47;2.17;;;12.90;99.90;;;;;;5070451;28;20205;-64
2022/11/02 09:30:35;;;;;;;7.50;1.60;;;12.90;99.90;;;;;;5070771;28;20334;-60
2022/11/02 09:33:04;;;;;;;6.53;1.37;;;12.80;1.00;;;;;;5070686;28;20882;-60
2022/11/02 09:35:32;;;;;;;9.70;1.63;;;12.70;1.00;;;;;;5071174;28;20204;-62
2022/11/02 09:38:00;;;;;;;6.47;1.80;;;12.70;1.00;;;;;;5071416;28;20208;-61
2022/11/02 09:40:29;;;;;;;5.43;1.80;;;12.90;99.90;;;;;;5070423;28;20211;-61
2022/11/02 09:43:04;;;;;;;7.43;1.70;;;12.90;99.90;;;;;;5071600;28;20683;-61
2022/11/02 09:45:34;;;;;;;13.00;2.17;;;13.00;99.90;;;;;;5074634;28;20722;-58
2022/11/02 09:48:05;;;;;;;8.30;2.30;;;13.00;99.90;;;;;;5074978;28;20208;-59
2022/11/02 09:50:44;;;;;;;12.53;2.73;;;13.00;99.90;;;;;;5074168;28;20205;-62
2022/11/02 09:53:18;;;;;;;2.97;0.90;;;12.90;99.90;;;;;;5074939;28;20220;-63
2022/11/02 09:55:52;;;;;;;5.30;1.67;;;13.10;30.80;;;;;;5074231;28;20200;-63
2022/11/02 09:58:23;;;;;;;7.10;1.53;;;13.10;1.00;;;;;;5075100;28;20208;-64
2022/11/02 10:00:55;;;;;;;8.00;1.80;;;13.10;1.00;;;;;;5074670;28;20235;-63
2022/11/02 10:03:34;;;;;;;12.23;2.10;;;13.00;1.00;;;;;;5074673;28;20208;-65
2022/11/02 10:06:08;;;;;;;8.90;1.90;;;13.00;99.90;;;;;;5074365;28;20298;-62
2022/11/02 10:08:45;;;;;;;13.67;1.80;;;13.00;99.90;;;;;;5074508;28;20227;-64
2022/11/02 10:11:23;;;;;;;10.10;2.13;;;13.00;1.00;;;;;;5073071;28;20286;-64
2022/11/02 10:13:54;;;;;;;7.37;1.80;;;13.00;1.00;;;;;;5065519;28;20274;-63
2022/11/02 10:16:25;;;;;;;7.57;1.50;;;13.00;99.90;;;;;;5074431;28;20251;-64
2022/11/02 10:18:53;;;;;;;9.90;2.10;;;13.10;1.00;;;;;;5073818;28;20277;-63
2022/11/02 10:21:23;;;;;;;11.13;2.10;;;13.10;54.00;;;;;;5074455;28;20224;-63
2022/11/02 10:23:53;;;;;;;7.37;1.50;;;13.00;99.90;;;;;;5073874;28;20208;-62
2022/11/02 10:26:23;;;;;;;8.20;2.10;;;12.90;99.90;;;;;;5074567;28;20285;-62
2022/11/02 10:28:55;;;;;;;9.40;1.97;;;12.90;99.90;;;;;;5073845;28;20233;-64
2022/11/02 10:31:27;;;;;;;10.93;1.70;;;12.90;99.90;;;;;;5074144;28;20243;-63
2022/11/02 10:33:55;;;;;;;9.77;1.93;;;12.80;99.90;;;;;;5074312;28;20326;-64
2022/11/02 10:36:38;;;;;;;4.43;1.43;;;12.80;99.90;;;;;;5073754;28;20268;-63
2022/11/02 10:39:19;;;;;;;8.40;2.37;;;12.70;99.90;;;;;;5074505;28;20210;-64
2022/11/02 10:42:03;;;;;;;5.63;1.70;;;12.70;99.90;;;;;;5073137;28;20315;-65
2022/11/02 10:44:58;;;;;;;9.50;1.80;;;12.80;99.90;;;;;;5074196;28;20200;-63
2022/11/02 10:47:27;;;;;;;12.07;2.37;;;13.00;20.20;;;;;;5073366;28;20201;-62
2022/11/02 10:50:13;;;;;;;6.70;2.00;;;13.40;1.00;;;;;;5073531;28;20216;-62
2022/11/02 10:52:43;;;;;;;9.23;1.50;;;13.50;1.00;;;;;;5073589;28;20319;-61
2022/11/02 10:55:20;;;;;;;9.97;1.50;;;13.60;99.90;;;;;;5073267;28;20282;-60
2022/11/02 10:57:48;;;;;;;14.33;2.30;;;13.60;99.90;;;;;;5073051;28;20672;-60
2022/11/02 11:00:39;;;;;;;6.97;1.70;;;13.60;99.90;;;;;;5073446;28;20215;-61
2022/11/02 11:03:09;;;;;;;7.27;1.60;;;13.50;64.60;;;;;;5058432;28;20204;-60
2022/11/02 11:05:38;;;;;;;6.97;1.43;;;13.60;46.50;;;;;;5073566;28;20219;-61
2022/11/02 11:08:05;;;;;;;9.27;1.70;;;13.60;99.90;;;;;;5072851;28;20216;-61
2022/11/02 11:10:37;;;;;;;8.37;1.63;;;13.80;99.90;;;;;;5073292;28;20243;-61
2022/11/02 11:13:06;;;;;;;9.70;1.80;;;14.00;99.90;;;;;;5073657;28;20213;-61
2022/11/02 11:15:34;;;;;;;6.10;1.37;;;14.20;19.60;;;;;;5073163;28;20239;-63
2022/11/02 11:18:11;;;;;;;6.17;1.40;;;14.20;1.00;;;;;;5073006;28;20263;-61
2022/11/02 11:20:39;;;;;;;9.27;1.87;;;14.30;1.00;;;;;;5072786;28;20283;-64
2022/11/02 11:23:19;;;;;;;9.60;1.43;;;14.50;1.00;;;;;;5073347;28;20205;-60
2022/11/02 11:26:01;;;;;;;5.20;1.17;;;14.60;1.00;;;;;;5072712;28;20208;-60
2022/11/02 11:28:30;;;;;;;7.03;1.80;;;14.70;1.00;;;;;;5073486;28;20200;-61
2022/11/02 11:31:10;;;;;;;5.00;1.37;;;14.90;1.00;;;;;;5072604;28;20717;-59
2022/11/02 11:33:46;;;;;;;7.87;0.90;;;15.00;99.90;;;;;;5072736;28;20232;-63
2022/11/02 11:36:22;;;;;;;7.40;1.47;;;14.80;99.90;;;;;;5072656;28;20282;-63
2022/11/02 11:38:51;;;;;;;5.20;1.37;;;14.70;99.90;;;;;;5073237;28;20673;-64
2022/11/02 11:41:20;;;;;;;5.50;1.73;;;14.70;99.90;;;;;;5072305;28;20266;-65
2022/11/02 11:43:48;;;;;;;7.67;1.40;;;14.70;99.90;;;;;;5071142;28;20197;-62
2022/11/02 11:46:16;;;;;;;7.80;1.40;;;14.80;99.90;;;;;;5072646;28;20229;-63
2022/11/02 11:48:47;;;;;;;6.00;1.40;;;14.80;99.90;;;;;;5072489;28;20209;-59
2022/11/02 11:51:29;;;;;;;7.73;1.87;;;14.80;99.90;;;;;;5072592;28;20279;-61
2022/11/02 11:54:21;;;;;;;4.60;1.10;;;14.70;99.90;;;;;;5072459;28;20266;-64
2022/11/02 11:56:51;;;;;;;6.17;1.27;;;14.80;99.90;;;;;;5072553;28;20208;-64
2022/11/02 11:59:24;;;;;;;6.77;1.53;;;15.00;99.90;;;;;;5072298;28;20205;-60
2022/11/02 12:01:56;;;;;;;7.70;1.77;;;15.10;99.90;;;;;;5072581;28;20240;-62
2022/11/02 12:04:34;;;;;;;5.93;1.37;;;15.20;99.90;;;;;;5072005;28;20695;-63
2022/11/02 12:07:18;;;;;;;8.00;1.23;;;15.20;99.90;;;;;;5051236;28;20212;-62
2022/11/02 12:09:51;;;;;;;7.80;1.03;;;15.20;99.90;;;;;;5051708;28;20255;-65
2022/11/02 12:12:28;;;;;;;3.60;1.20;;;15.40;99.90;;;;;;5052543;28;20229;-67
2022/11/02 12:15:03;;;;;;;5.57;1.40;;;15.40;99.90;;;;;;5052129;28;20236;-66
2022/11/02 12:17:42;;;;;;;6.03;1.93;;;15.50;99.90;;;;;;5052071;28;20323;-66
2022/11/02 12:20:41;;;;;;;7.80;1.27;;;15.40;99.90;;;;;;5051713;28;20209;-65
2022/11/02 12:23:22;;;;;;;6.20;1.33;;;15.30;99.90;;;;;;5052335;28;20210;-61
2022/11/02 12:25:54;;;;;;;8.60;1.40;;;15.20;99.90;;;;;;5051432;28;20209;-61
2022/11/02 12:28:32;;;;;;;5.57;1.37;;;15.20;99.90;;;;;;5065396;28;20227;-61
2022/11/02 12:31:06;;;;;;;5.50;1.53;;;15.00;99.90;;;;;;5071741;28;20247;-61
2022/11/02 12:33:48;;;;;;;5.53;1.20;;;14.90;99.90;;;;;;5071769;28;20220;-61
2022/11/02 12:36:35;;;;;;;5.10;1.20;;;14.80;99.90;;;;;;5071373;28;20205;-60
2022/11/02 12:39:07;;;;;;;4.57;1.20;;;14.70;99.90;;;;;;5071173;28;20223;-62
2022/11/02 12:42:03;;;;;;;4.47;1.27;;;14.90;99.90;;;;;;5071633;28;20232;-62
2022/11/02 12:44:45;;;;;;;10.27;1.53;;;15.10;99.90;;;;;;5058868;28;20201;-62
2022/11/02 12:47:34;;;;;;;6.50;1.33;;;15.10;99.90;;;;;;5072220;28;20205;-62
2022/11/02 12:50:08;;;;;;;12.10;1.57;;;15.20;99.90;;;;;;5071612;28;20699;-62
2022/11/02 12:52:48;;;;;;;3.63;1.10;;;15.30;99.90;;;;;;5071483;28;20765;-62
2022/11/02 12:55:19;;;;;;;8.70;1.60;;;15.40;99.90;;;;;;5071721;28;20205;-63
2022/11/02 12:57:47;;;;;;;5.83;1.50;;;15.60;99.90;;;;;;5071313;28;20208;-62
2022/11/02 13:00:21;;;;;;;6.37;1.23;;;15.60;99.90;;;;;;5070513;28;20694;-63
2022/11/02 13:02:57;;;;;;;8.07;1.53;;;15.60;99.90;;;;;;5071261;28;20229;-58
2022/11/02 13:05:29;;;;;;;8.27;1.83;;;15.40;99.90;;;;;;5070964;28;20204;-57
2022/11/02 13:08:03;;;;;;;7.57;1.33;;;15.40;99.90;;;;;;5071232;28;20205;-57
2022/11/02 13:10:36;;;;;;;5.53;1.30;;;15.30;99.90;;;;;;5070719;28;20262;-62
2022/11/02 13:13:04;;;;;;;9.17;1.40;;;15.10;99.90;;;;;;5071364;28;20686;-61
2022/11/02 13:15:35;;;;;;;6.47;1.97;;;15.10;99.90;;;;;;5071230;28;20209;-62
2022/11/02 13:18:07;;;;;;;10.40;1.40;;;15.10;99.90;;;;;;5070515;28;20615;-63